»·PEaware :: N5GL KOAK-KLGB

N5GL :: KOAK-KLGB

FLIGHT INFORMATION

Flight Status: Arrived
Operator: Privately registered:
United States
More flights under this callsign
Pilot: Georg L. (13308)
Aircraft: SOCATA TBM-900
(TBM9)
More flights by this aircraft type
Origin: KOAK Metro Oakland Intl
United States
Destination: KLGB Long Beach
United States
More flights between these airports :: More routes between these airports
Route: +COAST9 MCKEY TILLT BAUBB2
File this flight plan on PilotEdge
Remarks:
Altitude:
(Current/Filed)
31,000ft
Speed:
(Current/Filed)
315kts
Departed: 12-Apr-20 08:07 AM
Arrived: 12-Apr-20 09:28 AM
Distance/Time
Traveled:
307nm/1:21
Distance/Time
To Go:
Arrived

Flight Plot

Page will automatically refresh every two minutes.

Flight plan parsing failed; only flown route is shown


Map Options




Map Legend


Flown Route
Filed Route
Departure Airport
Arrival Airport
Navaid (VOR, NDB)
Fix

Horizontal Profiles

Position Reports

Time Latitude Longitude Heading Altitude Ground
Speed
12-Apr-20 07:29 37.730690 -122.213242 119 10ft 0kts
12-Apr-20 07:30 37.730690 -122.213242 119 10ft 0kts
12-Apr-20 07:31 37.730690 -122.213242 119 10ft 0kts
12-Apr-20 07:32 37.730690 -122.213242 119 10ft 0kts
12-Apr-20 07:33 37.730518 -122.213139 185 10ft 1kts
12-Apr-20 07:34 37.730436 -122.213328 153 10ft 1kts
12-Apr-20 07:35 37.730447 -122.213335 153 10ft 0kts
12-Apr-20 07:36 37.730447 -122.213335 153 10ft 0kts
12-Apr-20 07:37 37.730447 -122.213335 153 10ft 0kts
12-Apr-20 07:38 37.730447 -122.213335 153 10ft 0kts
12-Apr-20 07:39 37.730447 -122.213335 153 10ft 0kts
12-Apr-20 07:40 37.730447 -122.213335 153 10ft 0kts
12-Apr-20 07:41 37.730447 -122.213335 153 10ft 0kts
12-Apr-20 07:42 37.730447 -122.213335 153 10ft 0kts
12-Apr-20 07:43 37.730447 -122.213335 153 10ft 0kts
12-Apr-20 07:44 37.730447 -122.213335 153 10ft 0kts
12-Apr-20 07:45 37.730447 -122.213335 153 10ft 0kts
12-Apr-20 07:46 37.730447 -122.213335 153 10ft 0kts
12-Apr-20 07:47 37.730447 -122.213335 153 10ft 0kts
12-Apr-20 07:48 37.730447 -122.213335 153 10ft 0kts
12-Apr-20 07:49 37.730447 -122.213335 153 10ft 0kts
12-Apr-20 07:50 37.730447 -122.213335 153 10ft 0kts
12-Apr-20 07:51 37.730447 -122.213335 153 10ft 0kts
12-Apr-20 07:52 37.730447 -122.213335 153 10ft 0kts
12-Apr-20 07:56 37.729898 -122.213786 215 10ft 0kts
12-Apr-20 07:57 37.729898 -122.213786 215 10ft 0kts
12-Apr-20 07:58 37.729891 -122.213791 215 10ft 0kts
12-Apr-20 07:59 37.728084 -122.211972 110 10ft 13kts
12-Apr-20 08:00 37.726384 -122.206705 113 10ft 19kts
12-Apr-20 08:01 37.725478 -122.204554 224 10ft 3kts
12-Apr-20 08:02 37.724022 -122.205254 202 10ft 9kts
12-Apr-20 08:03 37.722967 -122.205801 202 10ft 0kts
12-Apr-20 08:04 37.722967 -122.205801 202 10ft 0kts
12-Apr-20 08:05 37.722966 -122.205801 202 10ft 0kts
12-Apr-20 08:06 37.723309 -122.209448 292 10ft 76kts
12-Apr-20 08:07 37.735577 -122.247766 291 1745ft 130kts
12-Apr-20 08:08 37.750227 -122.287881 291 4080ft 126kts
12-Apr-20 08:09 37.764896 -122.327891 291 6154ft 127kts
12-Apr-20 08:10 37.780453 -122.372636 291 7707ft 157kts
12-Apr-20 08:11 37.799312 -122.430380 291 9209ft 185kts
12-Apr-20 08:12 37.817534 -122.491086 291 10944ft 186kts
12-Apr-20 08:13 37.835086 -122.553877 291 12524ft 192kts
12-Apr-20 08:14 37.828218 -122.612308 195 14079ft 224kts
12-Apr-20 08:15 37.764566 -122.605923 164 15415ft 238kts
12-Apr-20 08:16 37.700715 -122.611781 180 16730ft 241kts
12-Apr-20 08:17 37.632707 -122.605588 180 17954ft 248kts
12-Apr-20 08:18 37.563339 -122.601542 183 18991ft 255kts
12-Apr-20 08:19 37.487514 -122.598739 183 19114ft 286kts
12-Apr-20 08:20 37.404381 -122.596734 183 19169ft 304kts
12-Apr-20 08:21 37.326540 -122.593698 183 21054ft 263kts
12-Apr-20 08:22 37.253280 -122.589223 183 22498ft 269kts
12-Apr-20 08:23 37.177501 -122.584068 183 23790ft 276kts
12-Apr-20 08:24 37.100197 -122.578189 183 25070ft 282kts
12-Apr-20 08:25 37.021207 -122.572174 183 26254ft 288kts
12-Apr-20 08:26 36.940810 -122.566418 183 27657ft 292kts
12-Apr-20 08:27 36.858951 -122.560390 183 28888ft 298kts
12-Apr-20 08:28 36.775191 -122.553839 183 30024ft 304kts
12-Apr-20 08:29 36.690547 -122.540468 166 31004ft 318kts
12-Apr-20 08:30 36.602927 -122.504620 167 31132ft 343kts
12-Apr-20 08:31 36.510683 -122.467565 167 31127ft 354kts
12-Apr-20 08:32 36.417605 -122.424241 149 31123ft 365kts
12-Apr-20 08:33 36.350954 -122.328288 129 31127ft 370kts
12-Apr-20 08:34 36.284435 -122.230703 130 31127ft 369kts
12-Apr-20 08:35 36.217827 -122.133815 131 31128ft 369kts
12-Apr-20 08:36 36.151207 -122.037196 131 31130ft 369kts
12-Apr-20 08:37 36.084617 -121.940890 130 31131ft 369kts
12-Apr-20 08:38 36.017703 -121.844393 131 31132ft 370kts
12-Apr-20 08:39 35.950603 -121.747902 131 31134ft 370kts
12-Apr-20 08:40 35.883926 -121.652294 131 31127ft 370kts
12-Apr-20 08:41 35.816613 -121.556045 131 31120ft 370kts
12-Apr-20 08:42 35.749418 -121.460238 131 31114ft 370kts
12-Apr-20 08:43 35.682108 -121.364535 131 31113ft 370kts
12-Apr-20 08:44 35.627080 -121.286491 131 31106ft 369kts
12-Apr-20 08:45 35.559563 -121.190987 131 31107ft 369kts
12-Apr-20 08:46 35.492279 -121.096075 130 31108ft 370kts
12-Apr-20 08:47 35.443559 -120.984959 128 31107ft 373kts
12-Apr-20 08:48 35.364113 -120.903805 140 31122ft 375kts
12-Apr-20 08:49 35.285665 -120.819417 140 31122ft 376kts
12-Apr-20 08:50 35.206692 -120.734435 140 31124ft 377kts
12-Apr-20 08:51 35.127762 -120.649727 140 31126ft 378kts
12-Apr-20 08:52 35.048499 -120.565131 143 31127ft 377kts
12-Apr-20 08:53 34.961731 -120.493784 149 31137ft 375kts
12-Apr-20 08:54 34.875011 -120.423799 149 31130ft 371kts
12-Apr-20 08:55 34.789582 -120.354803 148 31130ft 368kts
12-Apr-20 08:56 34.732000 -120.308341 149 31123ft 366kts
12-Apr-20 08:57 34.646895 -120.239974 149 31124ft 365kts
12-Apr-20 08:58 34.562237 -120.172263 149 31126ft 365kts
12-Apr-20 08:59 34.477388 -120.104567 149 31121ft 365kts
12-Apr-20 09:00 34.392440 -120.036959 149 31107ft 366kts
12-Apr-20 09:02 34.307080 -119.969203 149 30825ft 374kts
12-Apr-20 09:03 34.215706 -119.896829 149 28716ft 406kts
12-Apr-20 09:04 34.120772 -119.821849 148 26507ft 405kts
12-Apr-20 09:05 34.041418 -119.737050 117 26096ft 370kts
12-Apr-20 09:06 33.994758 -119.625313 120 24662ft 381kts
12-Apr-20 09:07 33.939326 -119.514915 120 22694ft 384kts
12-Apr-20 09:08 33.884487 -119.405435 119 20652ft 375kts
12-Apr-20 09:09 33.838763 -119.312550 120 19202ft 358kts
12-Apr-20 09:10 33.787709 -119.209141 120 18132ft 341kts
12-Apr-20 09:11 33.738258 -119.109248 120 17086ft 336kts
12-Apr-20 09:12 33.688996 -119.010011 120 15617ft 337kts
12-Apr-20 09:13 33.641103 -118.913800 120 14106ft 329kts
12-Apr-20 09:14 33.595958 -118.823351 120 13364ft 315kts
12-Apr-20 09:15 33.563742 -118.726597 98 11858ft 314kts
12-Apr-20 09:16 33.547384 -118.623918 99 10362ft 310kts
12-Apr-20 09:17 33.531091 -118.523557 100 8986ft 300kts
12-Apr-20 09:18 33.520697 -118.429730 89 8982ft 274kts
12-Apr-20 09:18 33.518766 -118.352672 89 8223ft 287kts
12-Apr-20 09:20 33.544543 -118.249884 67 6520ft 278kts
12-Apr-20 09:21 33.572279 -118.163178 68 5337ft 277kts
12-Apr-20 09:21 33.595326 -118.091378 69 4061ft 267kts
12-Apr-20 09:22 33.647184 -118.041228 30 3981ft 237kts
12-Apr-20 09:24 33.714082 -118.024290 331 2444ft 223kts
12-Apr-20 09:25 33.751808 -118.071590 312 1960ft 183kts
12-Apr-20 09:25 33.778730 -118.104086 312 991ft 142kts
12-Apr-20 09:26 33.802382 -118.132717 312 365ft 109kts
12-Apr-20 09:27 33.816698 -118.150052 315 63ft 31kts
12-Apr-20 09:28 33.818506 -118.153617 250 63ft 0kts
12-Apr-20 09:29 33.818506 -118.153617 250 63ft 0kts
12-Apr-20 09:30 33.818547 -118.154736 270 63ft 10kts
12-Apr-20 09:31 33.817331 -118.157268 195 63ft 13kts
12-Apr-20 09:32 33.813246 -118.157292 159 63ft 9kts
12-Apr-20 09:33 33.813054 -118.153342 90 63ft 19kts
12-Apr-20 09:34 33.812440 -118.151182 179 63ft 4kts
12-Apr-20 09:35 33.811980 -118.150814 89 63ft 0kts
12-Apr-20 09:36 33.811980 -118.150814 89 63ft 0kts
12-Apr-20 09:37 33.811980 -118.150814 89 63ft 0kts
12-Apr-20 09:38 33.811980 -118.150814 89 63ft 0kts
12-Apr-20 09:39 33.811980 -118.150814 89 63ft 0kts
12-Apr-20 09:40 33.811980 -118.150814 89 63ft 0kts
12-Apr-20 09:41 33.811980 -118.150814 89 63ft 0kts

Navigation Log

Ident Type
Flight plan parsing failed, navigation log unavailable